Time;durP1;ratioP1;P1;durP2;ratioP2;P2;SDS_P1;SDS_P2;PMS_P1;PMS_P2;Temp;Humidity;BMP_temperature;BMP_pressure;BME280_temperature;BME280_humidity;BME280_pressure;Samples;Min_cycle;Max_cycle;Signal;HPM_P1;HPM_P2
2022/11/20 00:01:38;;;;;;;6.70;3.00;;;;;20.50;96980.60;;;;108753;1272;41166;-47
2022/11/20 00:04:09;;;;;;;7.00;3.00;;;;;20.50;96973.60;;;;108843;1272;41601;-48
2022/11/20 00:06:38;;;;;;;8.80;3.10;;;;;20.42;96969.20;;;;108648;1275;41654;-47
2022/11/20 00:09:09;;;;;;;7.10;2.80;;;;;20.40;96966.40;;;;108792;1275;41150;-48
2022/11/20 00:11:39;;;;;;;7.90;2.90;;;;;20.40;96964.80;;;;108738;1275;41603;-47
2022/11/20 00:14:10;;;;;;;6.30;2.80;;;;;20.40;96960.60;;;;108741;1274;42156;-48
2022/11/20 00:16:39;;;;;;;7.80;2.90;;;;;20.40;96960.20;;;;108584;1272;41136;-46
2022/11/20 00:19:07;;;;;;;6.80;2.80;;;;;20.40;96959.80;;;;108558;1273;41147;-47
2022/11/20 00:21:36;;;;;;;6.70;2.80;;;;;20.40;96959.60;;;;108604;1269;41662;-47
2022/11/20 00:24:05;;;;;;;7.70;2.90;;;;;20.40;96963.60;;;;108625;1274;41195;-47
2022/11/20 00:26:34;;;;;;;7.90;3.00;;;;;20.38;96962.40;;;;108579;1272;41242;-47
2022/11/20 00:29:04;;;;;;;7.20;2.90;;;;;20.30;96971.20;;;;108583;1272;41594;-47
2022/11/20 00:31:35;;;;;;;7.80;2.80;;;;;20.30;96968.60;;;;108616;1272;41730;-47
2022/11/20 00:34:04;;;;;;;7.30;2.70;;;;;20.30;96974.00;;;;108777;1272;41654;-48
2022/11/20 00:36:34;;;;;;;7.50;3.00;;;;;20.30;96975.20;;;;108789;1272;41694;-47
2022/11/20 00:39:03;;;;;;;6.20;2.70;;;;;20.30;96975.60;;;;108850;1272;42291;-47
2022/11/20 00:41:32;;;;;;;5.50;2.20;;;;;20.30;96966.00;;;;108660;1272;41237;-47
2022/11/20 00:44:01;;;;;;;6.10;2.70;;;;;20.30;96956.00;;;;108807;1272;41619;-48
2022/11/20 00:46:30;;;;;;;5.70;2.40;;;;;20.30;96943.40;;;;108805;1272;41222;-48
2022/11/20 00:49:01;;;;;;;6.60;2.60;;;;;20.22;96944.80;;;;108722;1272;41239;-48
2022/11/20 00:51:30;;;;;;;6.20;2.60;;;;;20.20;96943.40;;;;108660;1267;41241;-48
2022/11/20 00:54:00;;;;;;;6.30;2.50;;;;;20.20;96941.40;;;;108761;1275;41149;-49
2022/11/20 00:56:30;;;;;;;6.50;2.50;;;;;20.20;96940.20;;;;108730;1275;41175;-48
2022/11/20 00:59:01;;;;;;;5.70;2.30;;;;;20.20;96937.40;;;;108800;1275;41976;-48
2022/11/20 01:01:31;;;;;;;5.80;2.40;;;;;20.20;96926.80;;;;108830;1272;41131;-47
2022/11/20 01:04:01;;;;;;;6.10;2.50;;;;;20.20;96920.80;;;;108782;1272;41235;-47
2022/11/20 01:06:35;;;;;;;7.40;2.40;;;;;20.20;96923.00;;;;108724;1272;42104;-47
2022/11/20 01:09:11;;;;;;;7.30;2.40;;;;;20.20;96925.00;;;;108788;1272;41641;-48
2022/11/20 01:11:43;;;;;;;4.60;2.10;;;;;20.18;96917.20;;;;108798;1270;41147;-48
2022/11/20 01:14:18;;;;;;;5.20;2.30;;;;;20.10;96918.00;;;;108762;1272;41169;-47
2022/11/20 01:16:49;;;;;;;5.60;2.30;;;;;20.10;96917.40;;;;108714;1275;41594;-47
2022/11/20 01:19:21;;;;;;;4.60;2.20;;;;;20.10;96921.60;;;;108748;1274;41241;-47
2022/11/20 01:21:52;;;;;;;5.60;2.40;;;;;20.10;96913.20;;;;108690;1275;41167;-48
2022/11/20 01:24:23;;;;;;;5.30;2.10;;;;;20.10;96909.80;;;;108634;1272;41173;-48
2022/11/20 01:26:52;;;;;;;5.60;2.20;;;;;20.10;96902.60;;;;108597;1272;41169;-47
2022/11/20 01:29:24;;;;;;;5.70;2.30;;;;;20.10;96904.60;;;;108650;1272;41623;-47
2022/11/20 01:31:55;;;;;;;4.10;2.00;;;;;20.10;96908.40;;;;108725;1272;41164;-49
2022/11/20 01:34:26;;;;;;;5.90;2.30;;;;;20.10;96896.40;;;;108782;1272;42002;-52
2022/11/20 01:36:57;;;;;;;6.10;2.20;;;;;20.10;96896.60;;;;108673;1275;41185;-51
2022/11/20 01:39:28;;;;;;;6.10;2.30;;;;;20.10;96897.40;;;;108867;1275;41172;-49
2022/11/20 01:44:54;;;;;;;5.10;2.00;;;;;20.10;96894.60;;;;108599;1275;41463;-47
2022/11/20 01:47:34;;;;;;;4.50;1.90;;;;;20.10;96894.60;;;;108707;1275;41175;-47
2022/11/20 01:50:14;;;;;;;4.50;2.00;;;;;20.10;96889.00;;;;108814;1275;41176;-47
2022/11/20 01:52:50;;;;;;;4.40;1.90;;;;;20.04;96876.00;;;;108844;1275;41565;-47
2022/11/20 01:55:25;;;;;;;4.00;2.00;;;;;20.00;96867.40;;;;108748;1272;41520;-46
2022/11/20 01:57:56;;;;;;;5.30;1.90;;;;;20.00;96869.60;;;;108816;1272;41198;-48
2022/11/20 02:00:26;;;;;;;4.40;1.90;;;;;20.00;96858.00;;;;108834;1272;41148;-48
2022/11/20 02:03:06;;;;;;;4.30;1.90;;;;;20.00;96854.80;;;;108689;1277;41143;-48
2022/11/20 02:05:44;;;;;;;5.00;2.00;;;;;20.00;96844.20;;;;108742;1270;41225;-47
2022/11/20 02:08:16;;;;;;;4.80;1.80;;;;;20.00;96846.00;;;;108748;1275;41234;-47
2022/11/20 02:10:47;;;;;;;4.80;2.10;;;;;20.00;96846.40;;;;108818;1273;42516;-47
2022/11/20 02:16:15;;;;;;;3.70;1.80;;;;;20.00;96848.00;;;;108699;1272;41125;-48
2022/11/20 02:18:46;;;;;;;4.40;1.90;;;;;20.00;96850.80;;;;108817;1272;41226;-48
2022/11/20 02:21:27;;;;;;;4.40;1.80;;;;;19.98;96842.60;;;;108762;1272;41127;-49
2022/11/20 02:24:20;;;;;;;5.40;2.00;;;;;19.98;96829.60;;;;108709;1275;41594;-48
2022/11/20 02:26:52;;;;;;;3.20;1.80;;;;;19.98;96830.80;;;;108719;1275;41609;-48
2022/11/20 02:29:28;;;;;;;3.90;1.90;;;;;19.90;96817.00;;;;108552;1274;41184;-49
2022/11/20 02:31:59;;;;;;;3.70;1.90;;;;;19.90;96807.00;;;;108663;1272;41132;-46
2022/11/20 02:34:30;;;;;;;3.90;1.80;;;;;19.90;96808.80;;;;108591;1272;41136;-48
2022/11/20 02:37:00;;;;;;;4.30;2.00;;;;;19.90;96798.20;;;;108608;1272;41170;-46
2022/11/20 02:39:30;;;;;;;2.80;1.70;;;;;19.90;96797.20;;;;108841;1272;41133;-48
2022/11/20 02:42:02;;;;;;;3.50;1.80;;;;;19.90;96797.60;;;;108618;1275;41878;-48
2022/11/20 02:44:33;;;;;;;5.80;2.00;;;;;19.90;96802.00;;;;108702;1275;41371;-46
2022/11/20 02:47:03;;;;;;;4.90;2.00;;;;;19.90;96801.60;;;;108650;1275;41146;-47
2022/11/20 02:49:34;;;;;;;4.30;1.80;;;;;19.90;96793.20;;;;108688;1274;41477;-48
2022/11/20 02:52:04;;;;;;;3.30;1.80;;;;;19.90;96792.40;;;;108604;1272;41170;-48
2022/11/20 02:54:35;;;;;;;3.50;1.80;;;;;19.90;96789.80;;;;108642;1274;41137;-48
2022/11/20 02:57:07;;;;;;;3.80;1.70;;;;;19.90;96790.00;;;;108667;1275;41144;-48
2022/11/20 02:59:38;;;;;;;4.10;1.80;;;;;19.90;96791.00;;;;108731;1275;41144;-48
2022/11/20 03:02:08;;;;;;;3.90;1.80;;;;;19.90;96784.60;;;;108722;1272;41589;-48
2022/11/20 03:04:39;;;;;;;5.60;1.80;;;;;19.90;96783.00;;;;108813;1272;41813;-47
2022/11/20 03:07:09;;;;;;;;;;;;;19.90;96792.40;;;;108693;1272;42169;-48
2022/11/20 03:09:39;;;;;;;3.20;1.70;;;;;19.80;96785.60;;;;108680;1272;41175;-47
2022/11/20 03:12:09;;;;;;;3.60;1.80;;;;;19.80;96781.80;;;;108627;1272;41605;-48
2022/11/20 03:14:39;;;;;;;2.80;1.60;;;;;19.80;96776.80;;;;108675;1275;41455;-48
2022/11/20 03:17:10;;;;;;;4.10;1.80;;;;;19.80;96778.00;;;;108715;1275;41149;-48
2022/11/20 03:19:39;;;;;;;3.40;1.60;;;;;19.80;96768.20;;;;108678;1273;42496;-48
2022/11/20 03:22:09;;;;;;;3.70;1.70;;;;;19.80;96764.60;;;;108679;1272;41226;-47
2022/11/20 03:24:39;;;;;;;3.70;1.70;;;;;19.80;96759.40;;;;108700;1272;41155;-47
2022/11/20 03:27:10;;;;;;;3.50;1.70;;;;;19.80;96757.20;;;;108762;1272;41144;-48
2022/11/20 03:29:40;;;;;;;2.40;1.60;;;;;19.80;96742.60;;;;108734;1272;41673;-48
2022/11/20 03:32:10;;;;;;;3.50;1.60;;;;;19.80;96734.20;;;;108696;1276;41712;-46
2022/11/20 03:34:40;;;;;;;2.80;1.60;;;;;19.80;96727.00;;;;108639;1278;41438;-47
2022/11/20 03:37:09;;;;;;;3.60;1.60;;;;;19.80;96727.00;;;;108742;1276;41138;-48
2022/11/20 03:39:40;;;;;;;;;;;;;19.80;96726.00;;;;108707;1275;41153;-47
2022/11/20 03:44:58;;;;;;;3.10;1.70;;;;;19.80;96734.60;;;;108573;1275;41178;-47
2022/11/20 03:47:28;;;;;;;2.60;1.50;;;;;19.80;96728.60;;;;108424;1279;41890;-47
2022/11/20 03:49:58;;;;;;;3.00;1.60;;;;;19.80;96726.20;;;;108723;1275;41227;-47
2022/11/20 03:52:28;;;;;;;3.70;1.70;;;;;19.82;96727.60;;;;108224;1274;646817;-47
2022/11/20 03:54:57;;;;;;;4.90;1.70;;;;;19.82;96721.80;;;;108694;1274;41647;-47
2022/11/20 03:57:27;;;;;;;2.80;1.60;;;;;19.86;96715.40;;;;108701;1277;42730;-48
2022/11/20 03:59:57;;;;;;;4.60;1.80;;;;;19.90;96717.00;;;;108736;1275;42434;-48
2022/11/20 04:02:27;;;;;;;3.30;1.40;;;;;19.90;96723.80;;;;108906;1263;41901;-48
2022/11/20 04:04:57;;;;;;;2.80;1.60;;;;;19.90;96722.00;;;;108674;1275;42415;-48
2022/11/20 04:07:27;;;;;;;3.90;1.60;;;;;19.90;96729.60;;;;108636;1278;41284;-48
2022/11/20 04:09:58;;;;;;;4.00;1.90;;;;;19.90;96734.00;;;;108742;1276;41400;-48
2022/11/20 04:12:29;;;;;;;2.60;1.50;;;;;19.90;96745.40;;;;108716;1272;41142;-48
2022/11/20 04:15:00;;;;;;;2.30;1.40;;;;;19.90;96747.40;;;;108656;1274;41621;-48
2022/11/20 04:17:30;;;;;;;3.90;1.70;;;;;19.90;96739.20;;;;108759;1272;41167;-49
2022/11/20 04:20:01;;;;;;;2.70;1.40;;;;;19.90;96726.80;;;;108718;1276;41152;-47
2022/11/20 04:22:33;;;;;;;2.90;1.70;;;;;19.90;96720.20;;;;108802;1276;41270;-48
2022/11/20 04:25:03;;;;;;;2.70;1.50;;;;;19.90;96717.80;;;;108783;1274;41854;-47
2022/11/20 04:27:33;;;;;;;3.30;1.60;;;;;19.90;96710.00;;;;108764;1272;41145;-47
2022/11/20 04:30:03;;;;;;;2.40;1.60;;;;;19.90;96696.40;;;;108737;1264;41510;-47
2022/11/20 04:32:32;;;;;;;2.40;1.50;;;;;19.90;96684.40;;;;108736;1272;41155;-50
2022/11/20 04:35:03;;;;;;;2.10;1.50;;;;;19.92;96683.60;;;;108847;1275;41166;-51
2022/11/20 04:37:33;;;;;;;2.80;1.30;;;;;19.92;96676.60;;;;108626;1278;41918;-47
2022/11/20 04:40:04;;;;;;;;;;;;;19.98;96674.00;;;;108632;1273;41148;-48
2022/11/20 04:42:34;;;;;;;2.30;1.20;;;;;19.90;96658.40;;;;108662;1276;41703;-48
2022/11/20 04:45:04;;;;;;;2.10;1.50;;;;;19.94;96644.40;;;;108696;1274;41237;-48
2022/11/20 04:47:34;;;;;;;2.20;1.40;;;;;19.98;96655.40;;;;108760;1273;41242;-47
2022/11/20 04:50:04;;;;;;;2.40;1.50;;;;;20.00;96662.60;;;;108633;1276;41692;-47
2022/11/20 04:52:35;;;;;;;2.50;1.40;;;;;20.00;96637.80;;;;108597;1276;42423;-46
2022/11/20 04:55:05;;;;;;;;;;;;;20.00;96650.20;;;;108602;1276;42426;-47
2022/11/20 04:57:35;;;;;;;2.60;1.50;;;;;20.00;96651.20;;;;108623;1273;41185;-47
2022/11/20 05:00:06;;;;;;;;;;;;;20.00;96663.40;;;;108630;1276;41137;-48
2022/11/20 05:02:36;;;;;;;2.10;1.50;;;;;20.00;96667.80;;;;108773;1276;41165;-48
2022/11/20 05:05:07;;;;;;;3.40;1.50;;;;;20.00;96653.60;;;;108746;1274;41190;-47
2022/11/20 05:07:36;;;;;;;2.80;1.40;;;;;20.00;96654.40;;;;108639;1276;41233;-48
2022/11/20 05:10:06;;;;;;;3.20;1.40;;;;;20.00;96683.80;;;;108617;1265;41149;-47
2022/11/20 05:12:35;;;;;;;2.70;1.60;;;;;20.00;96688.80;;;;108787;1276;41144;-48
2022/11/20 05:15:05;;;;;;;3.00;1.30;;;;;20.00;96676.60;;;;108806;1275;42388;-47
2022/11/20 05:17:34;;;;;;;2.10;1.40;;;;;20.00;96657.00;;;;108991;1270;41315;-49
2022/11/20 05:20:04;;;;;;;1.70;1.40;;;;;20.00;96656.80;;;;109027;1273;41695;-48
2022/11/20 05:22:34;;;;;;;2.20;1.40;;;;;20.00;96660.80;;;;109048;1274;41131;-49
2022/11/20 05:25:03;;;;;;;2.00;1.40;;;;;20.00;96657.40;;;;109017;1270;41462;-48
2022/11/20 05:27:35;;;;;;;1.80;1.30;;;;;20.02;96664.40;;;;109020;1273;41855;-47
2022/11/20 05:30:06;;;;;;;2.00;1.40;;;;;20.06;96674.80;;;;108967;1273;41142;-48
2022/11/20 05:32:35;;;;;;;1.80;1.20;;;;;20.08;96668.20;;;;108980;1272;41148;-48
2022/11/20 05:35:04;;;;;;;2.70;1.50;;;;;20.10;96662.60;;;;108970;1273;41145;-48
2022/11/20 05:37:33;;;;;;;2.60;1.30;;;;;20.08;96653.00;;;;108940;1270;41152;-48
2022/11/20 05:40:03;;;;;;;2.90;1.50;;;;;20.10;96657.80;;;;108954;1273;41689;-48
2022/11/20 05:42:31;;;;;;;2.30;1.50;;;;;20.10;96669.80;;;;108953;1274;41161;-48
2022/11/20 05:45:02;;;;;;;1.30;1.20;;;;;20.10;96676.60;;;;108945;1274;42035;-48
2022/11/20 05:47:33;;;;;;;1.70;1.30;;;;;20.10;96668.80;;;;108947;1274;41139;-48
2022/11/20 05:50:03;;;;;;;1.90;1.30;;;;;20.10;96664.00;;;;108948;1273;41603;-47
2022/11/20 05:52:31;;;;;;;3.20;1.50;;;;;20.10;96663.80;;;;108643;1275;41235;-47
2022/11/20 05:55:00;;;;;;;2.60;1.40;;;;;20.10;96662.80;;;;108991;1267;41147;-46
2022/11/20 05:57:29;;;;;;;1.70;1.30;;;;;20.10;96669.00;;;;108960;1273;41141;-48
2022/11/20 05:59:58;;;;;;;2.90;1.40;;;;;20.10;96672.20;;;;108930;1274;41895;-47
2022/11/20 06:02:26;;;;;;;3.70;1.50;;;;;20.10;96684.80;;;;109016;1273;41150;-47
2022/11/20 06:04:55;;;;;;;1.40;1.20;;;;;20.10;96685.80;;;;108973;1274;41145;-48
2022/11/20 06:07:24;;;;;;;2.30;1.30;;;;;20.10;96686.60;;;;108775;1275;41139;-47
2022/11/20 06:09:54;;;;;;;2.80;1.50;;;;;20.10;96693.60;;;;108977;1272;41899;-47
2022/11/20 06:12:22;;;;;;;3.80;1.40;;;;;20.14;96700.60;;;;108961;1273;41146;-47
2022/11/20 06:14:51;;;;;;;1.90;1.30;;;;;20.18;96704.20;;;;108904;1273;42590;-48
2022/11/20 06:17:20;;;;;;;2.10;1.40;;;;;20.20;96710.60;;;;108988;1273;41147;-47
2022/11/20 06:19:49;;;;;;;2.00;1.30;;;;;20.20;96717.60;;;;109001;1272;41471;-48
2022/11/20 06:22:17;;;;;;;1.70;1.30;;;;;20.20;96713.20;;;;109003;1274;41901;-48
2022/11/20 06:24:46;;;;;;;2.00;1.30;;;;;20.20;96715.80;;;;109001;1274;41175;-47
2022/11/20 06:27:16;;;;;;;2.30;1.40;;;;;20.20;96706.20;;;;108973;1272;42198;-48
2022/11/20 06:29:45;;;;;;;2.80;1.40;;;;;20.20;96694.60;;;;108806;1273;42007;-46
2022/11/20 06:32:13;;;;;;;1.90;1.30;;;;;20.20;96688.60;;;;108906;1273;41896;-47
2022/11/20 06:34:42;;;;;;;2.70;1.40;;;;;20.20;96682.80;;;;108913;1272;41160;-47
2022/11/20 06:37:11;;;;;;;1.60;1.30;;;;;20.20;96678.60;;;;108673;1272;41232;-46
2022/11/20 06:39:40;;;;;;;1.60;1.30;;;;;20.20;96667.20;;;;108959;1272;41190;-48
2022/11/20 06:42:09;;;;;;;2.50;1.50;;;;;20.20;96670.00;;;;109018;1269;41152;-49
2022/11/20 06:44:38;;;;;;;1.60;1.30;;;;;20.20;96662.80;;;;108999;1269;41124;-48
2022/11/20 06:47:07;;;;;;;3.90;1.60;;;;;20.22;96663.80;;;;109001;1272;41146;-50
